sensor_id;sensor_type;location;lat;lon;timestamp;pressure;altitude;pressure_sealevel;temperature;humidity
83185;BME280;73080;48.768;11.528;2023-12-20T00:01:13;97044.81;;;3.75;75.21
83185;BME280;73080;48.768;11.528;2023-12-20T00:03:38;97036.25;;;3.74;75.68
83185;BME280;73080;48.768;11.528;2023-12-20T00:06:04;97039.22;;;3.71;75.10
83185;BME280;73080;48.768;11.528;2023-12-20T00:08:29;97032.44;;;3.83;75.08
83185;BME280;73080;48.768;11.528;2023-12-20T00:10:54;97032.66;;;3.89;74.65
83185;BME280;73080;48.768;11.528;2023-12-20T00:13:19;97013.06;;;3.93;74.15
83185;BME280;73080;48.768;11.528;2023-12-20T00:15:48;97005.28;;;3.99;74.31
83185;BME280;73080;48.768;11.528;2023-12-20T00:18:13;97012.28;;;4.05;73.54
83185;BME280;73080;48.768;11.528;2023-12-20T00:20:38;97010.09;;;4.02;73.58
83185;BME280;73080;48.768;11.528;2023-12-20T00:23:04;97006.88;;;4.13;73.73
83185;BME280;73080;48.768;11.528;2023-12-20T00:25:35;97007.69;;;4.07;73.67
83185;BME280;73080;48.768;11.528;2023-12-20T00:28:00;97006.28;;;3.98;74.40
83185;BME280;73080;48.768;11.528;2023-12-20T00:30:26;96992.50;;;4.18;73.80
83185;BME280;73080;48.768;11.528;2023-12-20T00:32:51;96981.09;;;4.19;73.58
83185;BME280;73080;48.768;11.528;2023-12-20T00:35:16;96995.69;;;4.00;73.93
83185;BME280;73080;48.768;11.528;2023-12-20T00:37:43;96994.50;;;4.02;74.55
83185;BME280;73080;48.768;11.528;2023-12-20T00:40:09;96995.09;;;4.11;73.97
83185;BME280;73080;48.768;11.528;2023-12-20T00:42:34;96996.31;;;4.02;74.34
83185;BME280;73080;48.768;11.528;2023-12-20T00:45:00;96998.69;;;4.10;73.74
83185;BME280;73080;48.768;11.528;2023-12-20T00:47:25;96983.50;;;4.27;73.85
83185;BME280;73080;48.768;11.528;2023-12-20T00:49:51;96981.91;;;4.26;73.96
83185;BME280;73080;48.768;11.528;2023-12-20T00:52:20;96993.28;;;4.25;74.28
83185;BME280;73080;48.768;11.528;2023-12-20T00:54:45;96984.28;;;4.21;75.84
83185;BME280;73080;48.768;11.528;2023-12-20T00:57:14;96991.50;;;4.19;75.85
83185;BME280;73080;48.768;11.528;2023-12-20T00:59:39;96983.28;;;4.22;75.49
83185;BME280;73080;48.768;11.528;2023-12-20T01:02:10;96988.09;;;4.18;75.60
83185;BME280;73080;48.768;11.528;2023-12-20T01:04:35;96979.50;;;4.18;76.14
83185;BME280;73080;48.768;11.528;2023-12-20T01:07:00;96980.09;;;4.13;75.71
83185;BME280;73080;48.768;11.528;2023-12-20T01:09:26;96973.91;;;4.14;75.63
83185;BME280;73080;48.768;11.528;2023-12-20T01:11:51;96961.69;;;4.14;75.59
83185;BME280;73080;48.768;11.528;2023-12-20T01:14:20;96964.31;;;4.08;76.85
83185;BME280;73080;48.768;11.528;2023-12-20T01:16:45;96970.91;;;4.04;76.43
83185;BME280;73080;48.768;11.528;2023-12-20T01:19:10;96978.13;;;3.95;77.25
83185;BME280;73080;48.768;11.528;2023-12-20T01:21:36;96982.09;;;4.04;77.08
83185;BME280;73080;48.768;11.528;2023-12-20T01:24:01;96986.31;;;4.05;77.02
83185;BME280;73080;48.768;11.528;2023-12-20T01:26:26;96983.91;;;4.17;76.46
83185;BME280;73080;48.768;11.528;2023-12-20T01:28:52;96984.69;;;4.18;76.37
83185;BME280;73080;48.768;11.528;2023-12-20T01:31:17;96975.28;;;4.30;76.54
83185;BME280;73080;48.768;11.528;2023-12-20T01:33:42;96974.66;;;4.41;75.81
83185;BME280;73080;48.768;11.528;2023-12-20T01:36:08;96982.06;;;4.44;75.62
83185;BME280;73080;48.768;11.528;2023-12-20T01:38:34;96972.88;;;4.41;75.75
83185;BME280;73080;48.768;11.528;2023-12-20T01:40:59;96970.69;;;4.38;75.58
83185;BME280;73080;48.768;11.528;2023-12-20T01:43:24;96967.44;;;4.50;75.56
83185;BME280;73080;48.768;11.528;2023-12-20T01:45:50;96957.84;;;4.44;75.86
83185;BME280;73080;48.768;11.528;2023-12-20T01:48:17;96956.22;;;4.56;76.10
83185;BME280;73080;48.768;11.528;2023-12-20T01:50:43;96952.03;;;4.55;76.56
83185;BME280;73080;48.768;11.528;2023-12-20T01:53:16;96942.84;;;4.52;75.94
83185;BME280;73080;48.768;11.528;2023-12-20T01:55:44;96939.06;;;4.48;76.17
83185;BME280;73080;48.768;11.528;2023-12-20T01:58:13;96937.81;;;4.57;76.02
83185;BME280;73080;48.768;11.528;2023-12-20T02:00:39;96941.84;;;4.53;75.99
83185;BME280;73080;48.768;11.528;2023-12-20T02:03:04;96934.44;;;4.50;75.52
83185;BME280;73080;48.768;11.528;2023-12-20T02:05:31;96921.66;;;4.49;75.29
83185;BME280;73080;48.768;11.528;2023-12-20T02:07:57;96924.84;;;4.51;76.37
83185;BME280;73080;48.768;11.528;2023-12-20T02:10:23;96928.66;;;4.48;76.34
83185;BME280;73080;48.768;11.528;2023-12-20T02:12:48;96927.66;;;4.49;76.22
83185;BME280;73080;48.768;11.528;2023-12-20T02:15:14;96921.66;;;4.49;75.73
83185;BME280;73080;48.768;11.528;2023-12-20T02:17:39;96927.88;;;4.48;76.63
83185;BME280;73080;48.768;11.528;2023-12-20T02:20:05;96916.47;;;4.42;76.84
83185;BME280;73080;48.768;11.528;2023-12-20T02:22:31;96917.28;;;4.43;76.39
83185;BME280;73080;48.768;11.528;2023-12-20T02:24:57;96921.44;;;4.50;76.12
83185;BME280;73080;48.768;11.528;2023-12-20T02:27:23;96918.06;;;4.50;76.13
83185;BME280;73080;48.768;11.528;2023-12-20T02:29:50;96920.63;;;4.56;75.85
83185;BME280;73080;48.768;11.528;2023-12-20T02:32:17;96926.03;;;4.55;76.43
83185;BME280;73080;48.768;11.528;2023-12-20T02:34:42;96923.66;;;4.53;75.71
83185;BME280;73080;48.768;11.528;2023-12-20T02:37:08;96917.66;;;4.53;76.28
83185;BME280;73080;48.768;11.528;2023-12-20T02:39:36;96910.09;;;4.38;76.61
83185;BME280;73080;48.768;11.528;2023-12-20T02:42:02;96905.31;;;4.28;76.83
83185;BME280;73080;48.768;11.528;2023-12-20T02:44:27;96907.69;;;4.36;75.89
83185;BME280;73080;48.768;11.528;2023-12-20T02:46:52;96902.94;;;4.27;77.01
83185;BME280;73080;48.768;11.528;2023-12-20T02:49:20;96914.50;;;4.37;76.79
83185;BME280;73080;48.768;11.528;2023-12-20T02:51:46;96913.50;;;4.38;76.55
83185;BME280;73080;48.768;11.528;2023-12-20T02:54:11;96909.50;;;4.36;76.46
83185;BME280;73080;48.768;11.528;2023-12-20T02:56:36;96900.50;;;4.38;75.77
83185;BME280;73080;48.768;11.528;2023-12-20T02:59:02;96905.28;;;4.41;76.20
83185;BME280;73080;48.768;11.528;2023-12-20T03:01:28;96901.66;;;4.43;75.86
83185;BME280;73080;48.768;11.528;2023-12-20T03:03:53;96897.28;;;4.43;74.71
83185;BME280;73080;48.768;11.528;2023-12-20T03:06:21;96902.50;;;4.36;75.76
83185;BME280;73080;48.768;11.528;2023-12-20T03:08:47;96900.53;;;4.32;75.82
83185;BME280;73080;48.768;11.528;2023-12-20T03:11:15;96889.88;;;4.47;75.55
83185;BME280;73080;48.768;11.528;2023-12-20T03:13:40;96893.47;;;4.52;75.77
83185;BME280;73080;48.768;11.528;2023-12-20T03:16:14;96887.88;;;4.42;77.45
83185;BME280;73080;48.768;11.528;2023-12-20T03:18:39;96889.69;;;4.35;77.37
83185;BME280;73080;48.768;11.528;2023-12-20T03:21:08;96889.47;;;4.43;77.37
83185;BME280;73080;48.768;11.528;2023-12-20T03:23:36;96893.31;;;4.34;78.33
83185;BME280;73080;48.768;11.528;2023-12-20T03:26:01;96903.88;;;4.46;78.11
83185;BME280;73080;48.768;11.528;2023-12-20T03:28:32;96904.88;;;4.45;79.31
83185;BME280;73080;48.768;11.528;2023-12-20T03:30:58;96902.31;;;4.38;79.13
83185;BME280;73080;48.768;11.528;2023-12-20T03:33:23;96915.69;;;4.35;80.14
83185;BME280;73080;48.768;11.528;2023-12-20T03:35:49;96917.94;;;4.25;80.61
83185;BME280;73080;48.768;11.528;2023-12-20T03:38:14;96923.34;;;4.17;81.54
83185;BME280;73080;48.768;11.528;2023-12-20T03:40:39;96918.50;;;4.27;81.78
83185;BME280;73080;48.768;11.528;2023-12-20T03:43:05;96922.94;;;4.13;82.75
83185;BME280;73080;48.768;11.528;2023-12-20T03:45:30;96915.75;;;4.08;83.07
83185;BME280;73080;48.768;11.528;2023-12-20T03:47:55;96914.16;;;4.01;82.97
83185;BME280;73080;48.768;11.528;2023-12-20T03:50:24;96911.75;;;4.06;83.50
83185;BME280;73080;48.768;11.528;2023-12-20T03:52:49;96910.19;;;3.98;83.83
83185;BME280;73080;48.768;11.528;2023-12-20T03:55:15;96909.16;;;4.06;83.58
83185;BME280;73080;48.768;11.528;2023-12-20T03:57:43;96926.75;;;3.97;84.83
83185;BME280;73080;48.768;11.528;2023-12-20T04:00:09;96924.38;;;4.02;84.01
83185;BME280;73080;48.768;11.528;2023-12-20T04:02:34;96921.38;;;3.92;84.25
83185;BME280;73080;48.768;11.528;2023-12-20T04:04:59;96928.34;;;3.98;84.71
83185;BME280;73080;48.768;11.528;2023-12-20T04:07:25;96922.78;;;3.88;84.56
83185;BME280;73080;48.768;11.528;2023-12-20T04:09:50;96919.78;;;3.91;84.58
83185;BME280;73080;48.768;11.528;2023-12-20T04:12:15;96912.78;;;3.85;85.32
83185;BME280;73080;48.768;11.528;2023-12-20T04:14:40;96920.56;;;3.78;85.46
83185;BME280;73080;48.768;11.528;2023-12-20T04:17:06;96922.16;;;3.79;85.88
83185;BME280;73080;48.768;11.528;2023-12-20T04:19:34;96924.59;;;3.74;86.09
83185;BME280;73080;48.768;11.528;2023-12-20T04:22:00;96920.56;;;3.72;85.99
83185;BME280;73080;48.768;11.528;2023-12-20T04:24:25;96932.38;;;3.68;86.22
83185;BME280;73080;48.768;11.528;2023-12-20T04:26:50;96924.75;;;3.73;86.08
83185;BME280;73080;48.768;11.528;2023-12-20T04:29:18;96926.97;;;3.63;86.51
83185;BME280;73080;48.768;11.528;2023-12-20T04:31:44;96929.94;;;3.66;86.70
83185;BME280;73080;48.768;11.528;2023-12-20T04:34:09;96934.16;;;3.61;87.05
83185;BME280;73080;48.768;11.528;2023-12-20T04:36:34;96927.56;;;3.65;86.78
83185;BME280;73080;48.768;11.528;2023-12-20T04:39:00;96930.16;;;3.78;86.60
83185;BME280;73080;48.768;11.528;2023-12-20T04:41:25;96942.13;;;3.72;87.20
83185;BME280;73080;48.768;11.528;2023-12-20T04:43:50;96943.34;;;3.63;87.20
83185;BME280;73080;48.768;11.528;2023-12-20T04:46:19;96940.75;;;3.70;87.21
83185;BME280;73080;48.768;11.528;2023-12-20T04:48:44;96936.94;;;3.72;87.19
83185;BME280;73080;48.768;11.528;2023-12-20T04:51:09;96935.75;;;3.62;87.67
83185;BME280;73080;48.768;11.528;2023-12-20T04:53:35;96932.38;;;3.54;87.30
83185;BME280;73080;48.768;11.528;2023-12-20T04:56:00;96925.16;;;3.63;87.60
83185;BME280;73080;48.768;11.528;2023-12-20T04:58:31;96942.53;;;3.63;87.05
83185;BME280;73080;48.768;11.528;2023-12-20T05:00:57;96939.56;;;3.52;88.09
83185;BME280;73080;48.768;11.528;2023-12-20T05:03:22;96951.13;;;3.56;87.69
83185;BME280;73080;48.768;11.528;2023-12-20T05:05:47;96948.13;;;3.53;87.88
83185;BME280;73080;48.768;11.528;2023-12-20T05:08:16;96951.53;;;3.60;87.68
83185;BME280;73080;48.768;11.528;2023-12-20T05:10:41;96955.53;;;3.56;88.85
83185;BME280;73080;48.768;11.528;2023-12-20T05:13:09;96948.53;;;3.56;89.00
83185;BME280;73080;48.768;11.528;2023-12-20T05:15:37;96955.94;;;3.60;88.22
83185;BME280;73080;48.768;11.528;2023-12-20T05:18:03;96951.94;;;3.64;88.23
83185;BME280;73080;48.768;11.528;2023-12-20T05:20:28;96950.91;;;3.58;89.10
83185;BME280;73080;48.768;11.528;2023-12-20T05:22:54;96960.94;;;3.68;88.35
83185;BME280;73080;48.768;11.528;2023-12-20T05:25:19;96958.91;;;3.63;88.52
83185;BME280;73080;48.768;11.528;2023-12-20T05:27:45;96961.13;;;3.60;88.64
83185;BME280;73080;48.768;11.528;2023-12-20T05:30:11;96961.13;;;3.73;88.14
83185;BME280;73080;48.768;11.528;2023-12-20T05:32:36;96967.50;;;3.57;89.27
83185;BME280;73080;48.768;11.528;2023-12-20T05:35:01;96964.91;;;3.70;88.98
83185;BME280;73080;48.768;11.528;2023-12-20T05:37:33;96971.91;;;3.63;88.96
83185;BME280;73080;48.768;11.528;2023-12-20T05:40:01;96973.50;;;3.64;89.35
83185;BME280;73080;48.768;11.528;2023-12-20T05:42:26;96974.28;;;3.65;88.88
83185;BME280;73080;48.768;11.528;2023-12-20T05:44:51;96979.09;;;3.68;89.15
83185;BME280;73080;48.768;11.528;2023-12-20T05:47:16;96981.09;;;3.72;89.43
83185;BME280;73080;48.768;11.528;2023-12-20T05:49:43;96984.88;;;3.70;89.75
83185;BME280;73080;48.768;11.528;2023-12-20T05:52:09;96989.69;;;3.73;88.96
83185;BME280;73080;48.768;11.528;2023-12-20T05:54:37;96994.28;;;3.71;89.73
83185;BME280;73080;48.768;11.528;2023-12-20T05:57:02;97003.88;;;3.77;89.55
83185;BME280;73080;48.768;11.528;2023-12-20T05:59:28;97004.66;;;3.71;89.71
83185;BME280;73080;48.768;11.528;2023-12-20T06:01:53;97011.25;;;3.67;89.94
83185;BME280;73080;48.768;11.528;2023-12-20T06:04:18;97010.06;;;3.82;89.33
83185;BME280;73080;48.768;11.528;2023-12-20T06:06:44;97023.25;;;3.74;89.71
83185;BME280;73080;48.768;11.528;2023-12-20T06:09:09;97021.66;;;3.86;89.71
83185;BME280;73080;48.768;11.528;2023-12-20T06:11:35;97021.47;;;3.81;89.72
83185;BME280;73080;48.768;11.528;2023-12-20T06:14:00;97025.84;;;3.94;88.98
83185;BME280;73080;48.768;11.528;2023-12-20T06:16:26;97018.06;;;3.88;88.91
83185;BME280;73080;48.768;11.528;2023-12-20T06:18:51;97021.47;;;3.88;89.07
83185;BME280;73080;48.768;11.528;2023-12-20T06:21:23;97011.06;;;3.81;89.58
83185;BME280;73080;48.768;11.528;2023-12-20T06:23:48;97008.88;;;3.85;89.33
83185;BME280;73080;48.768;11.528;2023-12-20T06:26:13;97015.47;;;3.81;89.60
83185;BME280;73080;48.768;11.528;2023-12-20T06:28:39;97022.66;;;3.85;89.54
83185;BME280;73080;48.768;11.528;2023-12-20T06:31:04;97029.84;;;3.77;89.88
83185;BME280;73080;48.768;11.528;2023-12-20T06:33:30;97022.66;;;3.85;89.03
83185;BME280;73080;48.768;11.528;2023-12-20T06:35:56;97036.06;;;3.89;89.88
83185;BME280;73080;48.768;11.528;2023-12-20T06:38:21;97044.25;;;3.93;89.27
83185;BME280;73080;48.768;11.528;2023-12-20T06:40:46;97041.44;;;3.94;89.05
83185;BME280;73080;48.768;11.528;2023-12-20T06:43:12;97037.66;;;3.97;89.17
83185;BME280;73080;48.768;11.528;2023-12-20T06:45:40;97040.25;;;3.90;89.57
83185;BME280;73080;48.768;11.528;2023-12-20T06:48:06;97046.47;;;3.96;88.68
83185;BME280;73080;48.768;11.528;2023-12-20T06:50:31;97059.63;;;3.94;88.46
83185;BME280;73080;48.768;11.528;2023-12-20T06:52:57;97057.00;;;3.88;89.00
83185;BME280;73080;48.768;11.528;2023-12-20T06:55:22;97048.66;;;3.99;89.00
83185;BME280;73080;48.768;11.528;2023-12-20T06:57:47;97056.03;;;4.08;88.76
83185;BME280;73080;48.768;11.528;2023-12-20T07:00:16;97064.00;;;3.94;88.67
83185;BME280;73080;48.768;11.528;2023-12-20T07:02:42;97061.03;;;4.03;89.13
83185;BME280;73080;48.768;11.528;2023-12-20T07:05:08;97059.44;;;4.16;88.68
83185;BME280;73080;48.768;11.528;2023-12-20T07:07:34;97062.25;;;4.14;88.34
83185;BME280;73080;48.768;11.528;2023-12-20T07:09:59;97067.84;;;4.11;87.78
83185;BME280;73080;48.768;11.528;2023-12-20T07:12:24;97072.97;;;3.78;89.54
83185;BME280;73080;48.768;11.528;2023-12-20T07:14:49;97086.41;;;3.95;88.69
83185;BME280;73080;48.768;11.528;2023-12-20T07:17:15;97088.00;;;3.96;88.70
83185;BME280;73080;48.768;11.528;2023-12-20T07:19:41;97088.19;;;3.94;89.25
83185;BME280;73080;48.768;11.528;2023-12-20T07:22:07;97100.22;;;4.02;88.94
83185;BME280;73080;48.768;11.528;2023-12-20T07:24:33;97104.19;;;3.98;88.69
83185;BME280;73080;48.768;11.528;2023-12-20T07:27:01;97103.19;;;3.92;88.71
83185;BME280;73080;48.768;11.528;2023-12-20T07:29:27;97109.38;;;3.98;89.26
83185;BME280;73080;48.768;11.528;2023-12-20T07:31:56;97110.22;;;4.05;88.55
83185;BME280;73080;48.768;11.528;2023-12-20T07:34:21;97110.41;;;4.03;88.38
83185;BME280;73080;48.768;11.528;2023-12-20T07:36:46;97104.59;;;3.95;89.02
83185;BME280;73080;48.768;11.528;2023-12-20T07:39:11;97113.38;;;3.94;88.95
83185;BME280;73080;48.768;11.528;2023-12-20T07:41:37;97118.56;;;4.00;88.45
83185;BME280;73080;48.768;11.528;2023-12-20T07:44:04;97121.81;;;4.02;88.83
83185;BME280;73080;48.768;11.528;2023-12-20T07:46:29;97132.97;;;3.90;89.46
83185;BME280;73080;48.768;11.528;2023-12-20T07:48:54;97124.56;;;3.94;88.68
83185;BME280;73080;48.768;11.528;2023-12-20T07:51:20;97132.75;;;3.91;89.28
83185;BME280;73080;48.768;11.528;2023-12-20T07:53:45;97134.56;;;3.91;89.06
83185;BME280;73080;48.768;11.528;2023-12-20T07:56:17;97136.19;;;4.05;88.68
83185;BME280;73080;48.768;11.528;2023-12-20T07:58:44;97135.59;;;4.03;88.93
83185;BME280;73080;48.768;11.528;2023-12-20T08:01:10;97136.38;;;4.03;88.70
83185;BME280;73080;48.768;11.528;2023-12-20T08:03:36;97133.81;;;4.10;88.75
83185;BME280;73080;48.768;11.528;2023-12-20T08:06:02;97133.00;;;4.03;89.19
83185;BME280;73080;48.768;11.528;2023-12-20T08:08:27;97136.41;;;4.10;88.99
83185;BME280;73080;48.768;11.528;2023-12-20T08:10:53;97143.41;;;4.09;89.08
83185;BME280;73080;48.768;11.528;2023-12-20T08:13:18;97140.38;;;4.06;89.25
83185;BME280;73080;48.768;11.528;2023-12-20T08:15:43;97145.59;;;4.19;88.98
83185;BME280;73080;48.768;11.528;2023-12-20T08:18:09;97145.41;;;4.21;88.44
83185;BME280;73080;48.768;11.528;2023-12-20T08:20:37;97143.22;;;4.18;88.84
83185;BME280;73080;48.768;11.528;2023-12-20T08:23:02;97147.00;;;4.22;88.69
83185;BME280;73080;48.768;11.528;2023-12-20T08:25:28;97144.81;;;4.19;89.04
83185;BME280;73080;48.768;11.528;2023-12-20T08:27:53;97155.41;;;4.17;89.24
83185;BME280;73080;48.768;11.528;2023-12-20T08:30:18;97148.78;;;4.21;88.69
83185;BME280;73080;48.768;11.528;2023-12-20T08:32:44;97150.22;;;4.17;88.63
83185;BME280;73080;48.768;11.528;2023-12-20T08:35:09;97156.41;;;4.29;89.18
83185;BME280;73080;48.768;11.528;2023-12-20T08:37:35;97154.81;;;4.35;88.48
83185;BME280;73080;48.768;11.528;2023-12-20T08:40:00;97149.63;;;4.35;88.75
83185;BME280;73080;48.768;11.528;2023-12-20T08:42:25;97157.63;;;4.33;88.50
83185;BME280;73080;48.768;11.528;2023-12-20T08:44:51;97147.81;;;4.29;88.87
83185;BME280;73080;48.768;11.528;2023-12-20T08:47:16;97135.59;;;4.29;88.88
83185;BME280;73080;48.768;11.528;2023-12-20T08:49:41;97140.81;;;4.29;89.11
83185;BME280;73080;48.768;11.528;2023-12-20T08:52:10;97139.84;;;4.37;88.78
83185;BME280;73080;48.768;11.528;2023-12-20T08:54:35;97145.63;;;4.32;89.25
83185;BME280;73080;48.768;11.528;2023-12-20T08:57:00;97145.41;;;4.34;88.65
83185;BME280;73080;48.768;11.528;2023-12-20T08:59:26;97147.44;;;4.38;88.22
83185;BME280;73080;48.768;11.528;2023-12-20T09:01:51;97147.44;;;4.38;89.37
83185;BME280;73080;48.768;11.528;2023-12-20T09:04:16;97149.25;;;4.38;88.71
83185;BME280;73080;48.768;11.528;2023-12-20T09:06:42;97139.63;;;4.38;88.54
83185;BME280;73080;48.768;11.528;2023-12-20T09:09:07;97139.66;;;4.45;89.17
83185;BME280;73080;48.768;11.528;2023-12-20T09:11:36;97139.44;;;4.47;88.69
83185;BME280;73080;48.768;11.528;2023-12-20T09:14:01;97139.25;;;4.55;88.68
83185;BME280;73080;48.768;11.528;2023-12-20T09:16:26;97133.84;;;4.63;88.51
83185;BME280;73080;48.768;11.528;2023-12-20T09:18:52;97119.44;;;4.74;88.30
83185;BME280;73080;48.768;11.528;2023-12-20T09:21:17;97119.66;;;4.65;88.04
83185;BME280;73080;48.768;11.528;2023-12-20T09:23:42;97121.81;;;4.82;88.06
83185;BME280;73080;48.768;11.528;2023-12-20T09:26:08;97124.63;;;4.80;87.58
83185;BME280;73080;48.768;11.528;2023-12-20T09:28:33;97131.03;;;4.64;87.65
83185;BME280;73080;48.768;11.528;2023-12-20T09:30:59;97117.84;;;4.73;87.86
83185;BME280;73080;48.768;11.528;2023-12-20T09:33:24;97125.44;;;4.74;88.33
83185;BME280;73080;48.768;11.528;2023-12-20T09:35:49;97129.63;;;4.75;88.11
83185;BME280;73080;48.768;11.528;2023-12-20T09:38:15;97136.66;;;4.68;88.38
83185;BME280;73080;48.768;11.528;2023-12-20T09:40:41;97133.25;;;4.67;87.88
83185;BME280;73080;48.768;11.528;2023-12-20T09:43:15;97138.84;;;4.64;88.37
83185;BME280;73080;48.768;11.528;2023-12-20T09:45:47;97142.44;;;4.83;87.80
83185;BME280;73080;48.768;11.528;2023-12-20T09:48:13;97140.47;;;4.65;88.17
83185;BME280;73080;48.768;11.528;2023-12-20T09:50:41;97132.81;;;4.77;87.89
83185;BME280;73080;48.768;11.528;2023-12-20T09:53:08;97140.63;;;4.77;86.79
83185;BME280;73080;48.768;11.528;2023-12-20T09:55:37;97139.44;;;4.86;87.15
83185;BME280;73080;48.768;11.528;2023-12-20T09:58:03;97134.25;;;4.80;87.46
83185;BME280;73080;48.768;11.528;2023-12-20T10:00:29;97119.03;;;4.70;87.66
83185;BME280;73080;48.768;11.528;2023-12-20T10:02:57;97122.03;;;4.74;86.93
83185;BME280;73080;48.768;11.528;2023-12-20T10:05:35;97122.41;;;4.97;86.76
83185;BME280;73080;48.768;11.528;2023-12-20T10:08:01;97124.56;;;5.13;85.98
83185;BME280;73080;48.768;11.528;2023-12-20T10:10:29;97123.19;;;5.04;85.91
83185;BME280;73080;48.768;11.528;2023-12-20T10:13:05;97131.19;;;5.16;84.61
83185;BME280;73080;48.768;11.528;2023-12-20T10:15:33;97118.34;;;5.14;84.67
83185;BME280;73080;48.768;11.528;2023-12-20T10:18:02;97129.78;;;5.13;86.11
83185;BME280;73080;48.768;11.528;2023-12-20T10:20:28;97131.59;;;5.06;86.09
83185;BME280;73080;48.768;11.528;2023-12-20T10:22:55;97132.59;;;4.99;86.46
83185;BME280;73080;48.768;11.528;2023-12-20T10:25:21;97123.78;;;5.00;86.05
83185;BME280;73080;48.768;11.528;2023-12-20T10:27:46;97121.59;;;5.03;85.92
83185;BME280;73080;48.768;11.528;2023-12-20T10:30:12;97127.19;;;5.07;86.68
83185;BME280;73080;48.768;11.528;2023-12-20T10:32:38;97128.97;;;5.06;87.16
83185;BME280;73080;48.768;11.528;2023-12-20T10:35:03;97140.84;;;4.89;87.93
83185;BME280;73080;48.768;11.528;2023-12-20T10:37:35;97134.63;;;4.96;87.85
83185;BME280;73080;48.768;11.528;2023-12-20T10:40:03;97135.78;;;5.07;87.06
83185;BME280;73080;48.768;11.528;2023-12-20T10:42:29;97137.00;;;5.05;86.81
83185;BME280;73080;48.768;11.528;2023-12-20T10:44:54;97130.63;;;4.94;86.45
83185;BME280;73080;48.768;11.528;2023-12-20T10:47:20;97121.03;;;4.88;87.52
83185;BME280;73080;48.768;11.528;2023-12-20T10:49:46;97116.41;;;4.90;86.50
83185;BME280;73080;48.768;11.528;2023-12-20T10:52:12;97117.00;;;4.92;86.90
83185;BME280;73080;48.768;11.528;2023-12-20T10:54:38;97122.81;;;5.01;86.20
83185;BME280;73080;48.768;11.528;2023-12-20T10:57:05;97125.41;;;5.01;87.15
83185;BME280;73080;48.768;11.528;2023-12-20T10:59:33;97126.41;;;4.93;86.79
83185;BME280;73080;48.768;11.528;2023-12-20T11:01:59;97116.00;;;4.93;87.34
83185;BME280;73080;48.768;11.528;2023-12-20T11:04:34;97127.19;;;5.07;87.45
83185;BME280;73080;48.768;11.528;2023-12-20T11:07:19;97114.56;;;5.17;86.71
83185;BME280;73080;48.768;11.528;2023-12-20T11:10:00;97122.16;;;5.18;86.04
83185;BME280;73080;48.768;11.528;2023-12-20T11:12:37;97116.59;;;5.02;83.80
83185;BME280;73080;48.768;11.528;2023-12-20T11:15:06;97119.97;;;5.15;83.13
83185;BME280;73080;48.768;11.528;2023-12-20T11:17:32;97115.94;;;5.19;83.45
83185;BME280;73080;48.768;11.528;2023-12-20T11:22:24;97108.72;;;5.28;82.21
83185;BME280;73080;48.768;11.528;2023-12-20T11:24:51;97098.16;;;5.16;82.18
83185;BME280;73080;48.768;11.528;2023-12-20T11:27:20;97111.19;;;4.96;81.72
83185;BME280;73080;48.768;11.528;2023-12-20T11:29:56;97106.81;;;4.90;81.83
83185;BME280;73080;48.768;11.528;2023-12-20T11:37:21;97101.03;;;4.75;81.75
83185;BME280;73080;48.768;11.528;2023-12-20T11:39:56;97103.63;;;4.68;81.70
83185;BME280;73080;48.768;11.528;2023-12-20T11:42:25;97097.63;;;4.68;81.80
83185;BME280;73080;48.768;11.528;2023-12-20T11:44:50;97111.44;;;4.55;81.44
83185;BME280;73080;48.768;11.528;2023-12-20T11:47:18;97108.41;;;4.65;81.00
83185;BME280;73080;48.768;11.528;2023-12-20T11:49:44;97105.81;;;4.78;80.92
83185;BME280;73080;48.768;11.528;2023-12-20T11:52:12;97095.03;;;4.68;80.27
83185;BME280;73080;48.768;11.528;2023-12-20T11:54:37;97089.56;;;5.03;79.61
83185;BME280;73080;48.768;11.528;2023-12-20T11:57:03;97094.53;;;5.17;79.28
83185;BME280;73080;48.768;11.528;2023-12-20T11:59:31;97078.31;;;5.22;78.38
83185;BME280;73080;48.768;11.528;2023-12-20T12:01:58;97067.59;;;5.50;77.29
83185;BME280;73080;48.768;11.528;2023-12-20T12:04:23;97076.22;;;5.82;77.33
83185;BME280;73080;48.768;11.528;2023-12-20T12:06:48;97075.88;;;6.10;75.10
83185;BME280;73080;48.768;11.528;2023-12-20T12:09:14;97071.84;;;6.39;74.87
83185;BME280;73080;48.768;11.528;2023-12-20T12:11:42;97078.19;;;6.93;72.28
83185;BME280;73080;48.768;11.528;2023-12-20T12:14:08;97073.91;;;6.80;73.60
83185;BME280;73080;48.768;11.528;2023-12-20T12:16:33;97064.28;;;6.99;70.32
83185;BME280;73080;48.768;11.528;2023-12-20T12:18:59;97058.66;;;7.32;70.09
83185;BME280;73080;48.768;11.528;2023-12-20T12:21:24;97062.38;;;7.43;69.48
83185;BME280;73080;48.768;11.528;2023-12-20T12:23:50;97073.53;;;7.68;68.58
83185;BME280;73080;48.768;11.528;2023-12-20T12:26:15;97078.78;;;7.80;67.67
83185;BME280;73080;48.768;11.528;2023-12-20T12:28:41;97082.31;;;7.56;67.04
83185;BME280;73080;48.768;11.528;2023-12-20T12:31:07;97074.41;;;7.62;65.60
83185;BME280;73080;48.768;11.528;2023-12-20T12:33:41;97075.44;;;7.73;64.92
83185;BME280;73080;48.768;11.528;2023-12-20T12:36:07;97079.44;;;7.09;65.91
83185;BME280;73080;48.768;11.528;2023-12-20T12:38:33;97079.34;;;6.54;66.56
83185;BME280;73080;48.768;11.528;2023-12-20T12:40:59;97077.66;;;6.66;67.87
83185;BME280;73080;48.768;11.528;2023-12-20T12:43:25;97081.59;;;6.94;66.96
83185;BME280;73080;48.768;11.528;2023-12-20T12:45:50;97076.41;;;6.69;67.51
83185;BME280;73080;48.768;11.528;2023-12-20T12:48:16;97071.53;;;7.15;66.81
83185;BME280;73080;48.768;11.528;2023-12-20T12:50:41;97059.19;;;7.04;66.63
83185;BME280;73080;48.768;11.528;2023-12-20T12:53:06;97059.78;;;6.88;66.32
83185;BME280;73080;48.768;11.528;2023-12-20T12:55:32;97060.28;;;6.78;65.69
83185;BME280;73080;48.768;11.528;2023-12-20T12:57:58;97068.53;;;6.75;66.04
83185;BME280;73080;48.768;11.528;2023-12-20T13:00:23;97072.22;;;6.68;66.20
83185;BME280;73080;48.768;11.528;2023-12-20T13:02:48;97069.94;;;6.53;65.86